sensor_id;sensor_type;location;lat;lon;timestamp;P1;durP1;ratioP1;P2;durP2;ratioP2
7057;SDS011;3570;43.080;25.628;2023-07-30T00:01:17;5.47;;;3.60;;
7057;SDS011;3570;43.080;25.628;2023-07-30T00:04:01;2.80;;;2.60;;
7057;SDS011;3570;43.080;25.628;2023-07-30T00:06:45;3.87;;;3.07;;
7057;SDS011;3570;43.080;25.628;2023-07-30T00:09:29;3.70;;;2.80;;
7057;SDS011;3570;43.080;25.628;2023-07-30T00:12:13;3.77;;;3.13;;
7057;SDS011;3570;43.080;25.628;2023-07-30T00:14:57;4.97;;;3.47;;
7057;SDS011;3570;43.080;25.628;2023-07-30T00:17:41;4.67;;;3.17;;
7057;SDS011;3570;43.080;25.628;2023-07-30T00:20:25;4.13;;;2.87;;
7057;SDS011;3570;43.080;25.628;2023-07-30T00:23:09;6.20;;;3.73;;
7057;SDS011;3570;43.080;25.628;2023-07-30T00:25:52;4.47;;;3.33;;
7057;SDS011;3570;43.080;25.628;2023-07-30T00:28:36;3.67;;;3.07;;
7057;SDS011;3570;43.080;25.628;2023-07-30T00:31:20;4.47;;;3.03;;
7057;SDS011;3570;43.080;25.628;2023-07-30T00:34:04;3.63;;;2.97;;
7057;SDS011;3570;43.080;25.628;2023-07-30T00:36:48;3.50;;;3.10;;
7057;SDS011;3570;43.080;25.628;2023-07-30T00:39:32;4.73;;;3.33;;
7057;SDS011;3570;43.080;25.628;2023-07-30T00:42:16;4.73;;;3.40;;
7057;SDS011;3570;43.080;25.628;2023-07-30T00:45:00;4.07;;;2.87;;
7057;SDS011;3570;43.080;25.628;2023-07-30T00:47:44;3.87;;;2.93;;
7057;SDS011;3570;43.080;25.628;2023-07-30T00:50:29;3.10;;;2.80;;
7057;SDS011;3570;43.080;25.628;2023-07-30T00:53:14;4.00;;;3.30;;
7057;SDS011;3570;43.080;25.628;2023-07-30T00:55:59;5.17;;;3.80;;
7057;SDS011;3570;43.080;25.628;2023-07-30T00:58:44;4.93;;;3.80;;
7057;SDS011;3570;43.080;25.628;2023-07-30T01:01:32;4.13;;;3.47;;
7057;SDS011;3570;43.080;25.628;2023-07-30T01:04:17;3.33;;;3.03;;
7057;SDS011;3570;43.080;25.628;2023-07-30T01:07:02;4.03;;;3.50;;
7057;SDS011;3570;43.080;25.628;2023-07-30T01:09:46;3.87;;;3.47;;
7057;SDS011;3570;43.080;25.628;2023-07-30T01:12:30;6.20;;;3.47;;
7057;SDS011;3570;43.080;25.628;2023-07-30T01:15:15;5.47;;;3.40;;
7057;SDS011;3570;43.080;25.628;2023-07-30T01:17:59;3.20;;;2.77;;
7057;SDS011;3570;43.080;25.628;2023-07-30T01:20:43;3.40;;;3.10;;
7057;SDS011;3570;43.080;25.628;2023-07-30T01:23:27;2.80;;;2.60;;
7057;SDS011;3570;43.080;25.628;2023-07-30T01:26:12;3.80;;;3.30;;
7057;SDS011;3570;43.080;25.628;2023-07-30T01:29:12;3.47;;;3.07;;
7057;SDS011;3570;43.080;25.628;2023-07-30T01:32:06;2.93;;;2.47;;
7057;SDS011;3570;43.080;25.628;2023-07-30T01:34:52;3.00;;;2.70;;
7057;SDS011;3570;43.080;25.628;2023-07-30T01:37:38;3.10;;;2.80;;
7057;SDS011;3570;43.080;25.628;2023-07-30T01:40:24;4.27;;;3.30;;
7057;SDS011;3570;43.080;25.628;2023-07-30T01:43:09;4.23;;;3.50;;
7057;SDS011;3570;43.080;25.628;2023-07-30T01:45:54;3.63;;;3.33;;
7057;SDS011;3570;43.080;25.628;2023-07-30T01:48:38;3.33;;;3.03;;
7057;SDS011;3570;43.080;25.628;2023-07-30T01:51:21;3.47;;;3.17;;
7057;SDS011;3570;43.080;25.628;2023-07-30T01:54:05;3.20;;;2.83;;
7057;SDS011;3570;43.080;25.628;2023-07-30T01:56:49;3.47;;;3.00;;
7057;SDS011;3570;43.080;25.628;2023-07-30T01:59:33;3.30;;;2.67;;
7057;SDS011;3570;43.080;25.628;2023-07-30T02:02:17;6.87;;;3.57;;
7057;SDS011;3570;43.080;25.628;2023-07-30T02:05:02;3.70;;;3.40;;
7057;SDS011;3570;43.080;25.628;2023-07-30T02:07:46;3.13;;;2.83;;
7057;SDS011;3570;43.080;25.628;2023-07-30T02:10:31;5.50;;;3.13;;
7057;SDS011;3570;43.080;25.628;2023-07-30T02:13:14;6.33;;;3.33;;
7057;SDS011;3570;43.080;25.628;2023-07-30T02:15:59;3.63;;;3.23;;
7057;SDS011;3570;43.080;25.628;2023-07-30T02:18:43;5.57;;;3.23;;
7057;SDS011;3570;43.080;25.628;2023-07-30T02:21:27;6.27;;;3.60;;
7057;SDS011;3570;43.080;25.628;2023-07-30T02:24:14;3.90;;;3.40;;
7057;SDS011;3570;43.080;25.628;2023-07-30T02:26:58;6.37;;;4.00;;
7057;SDS011;3570;43.080;25.628;2023-07-30T02:29:42;7.63;;;5.20;;
7057;SDS011;3570;43.080;25.628;2023-07-30T02:32:26;8.70;;;6.00;;
7057;SDS011;3570;43.080;25.628;2023-07-30T02:35:10;5.67;;;4.60;;
7057;SDS011;3570;43.080;25.628;2023-07-30T02:37:54;8.73;;;5.57;;
7057;SDS011;3570;43.080;25.628;2023-07-30T02:40:38;8.30;;;5.63;;
7057;SDS011;3570;43.080;25.628;2023-07-30T02:43:22;7.57;;;5.30;;
7057;SDS011;3570;43.080;25.628;2023-07-30T02:46:06;6.60;;;5.33;;
7057;SDS011;3570;43.080;25.628;2023-07-30T02:48:50;8.67;;;5.90;;
7057;SDS011;3570;43.080;25.628;2023-07-30T02:51:34;8.20;;;5.37;;
7057;SDS011;3570;43.080;25.628;2023-07-30T02:54:18;8.67;;;4.80;;
7057;SDS011;3570;43.080;25.628;2023-07-30T02:57:05;10.00;;;6.00;;
7057;SDS011;3570;43.080;25.628;2023-07-30T02:59:49;13.77;;;5.57;;
7057;SDS011;3570;43.080;25.628;2023-07-30T03:02:33;8.57;;;5.10;;
7057;SDS011;3570;43.080;25.628;2023-07-30T03:05:17;7.43;;;4.57;;
7057;SDS011;3570;43.080;25.628;2023-07-30T03:08:01;9.50;;;6.37;;
7057;SDS011;3570;43.080;25.628;2023-07-30T03:10:45;7.83;;;4.73;;
7057;SDS011;3570;43.080;25.628;2023-07-30T03:13:29;11.87;;;5.90;;
7057;SDS011;3570;43.080;25.628;2023-07-30T03:16:13;8.43;;;6.07;;
7057;SDS011;3570;43.080;25.628;2023-07-30T03:18:57;7.10;;;5.73;;
7057;SDS011;3570;43.080;25.628;2023-07-30T03:21:41;7.57;;;5.23;;
7057;SDS011;3570;43.080;25.628;2023-07-30T03:24:25;9.60;;;5.63;;
7057;SDS011;3570;43.080;25.628;2023-07-30T03:27:09;9.90;;;5.77;;
7057;SDS011;3570;43.080;25.628;2023-07-30T03:29:53;10.37;;;5.00;;
7057;SDS011;3570;43.080;25.628;2023-07-30T03:32:37;10.00;;;5.77;;
7057;SDS011;3570;43.080;25.628;2023-07-30T03:35:21;9.67;;;5.60;;
7057;SDS011;3570;43.080;25.628;2023-07-30T03:38:05;10.77;;;5.60;;
7057;SDS011;3570;43.080;25.628;2023-07-30T03:40:49;7.67;;;5.03;;
7057;SDS011;3570;43.080;25.628;2023-07-30T03:43:34;7.60;;;5.30;;
7057;SDS011;3570;43.080;25.628;2023-07-30T03:46:18;7.63;;;5.93;;
7057;SDS011;3570;43.080;25.628;2023-07-30T03:49:02;7.80;;;5.57;;
7057;SDS011;3570;43.080;25.628;2023-07-30T03:51:47;7.63;;;5.47;;
7057;SDS011;3570;43.080;25.628;2023-07-30T03:54:31;8.17;;;4.50;;
7057;SDS011;3570;43.080;25.628;2023-07-30T03:57:15;5.37;;;4.60;;
7057;SDS011;3570;43.080;25.628;2023-07-30T03:59:59;7.07;;;4.60;;
7057;SDS011;3570;43.080;25.628;2023-07-30T04:02:43;6.40;;;5.30;;
7057;SDS011;3570;43.080;25.628;2023-07-30T04:05:28;7.47;;;5.80;;
7057;SDS011;3570;43.080;25.628;2023-07-30T04:08:12;7.37;;;5.67;;
7057;SDS011;3570;43.080;25.628;2023-07-30T04:10:56;7.97;;;6.03;;
7057;SDS011;3570;43.080;25.628;2023-07-30T04:13:39;7.97;;;5.37;;
7057;SDS011;3570;43.080;25.628;2023-07-30T04:16:24;6.03;;;4.77;;
7057;SDS011;3570;43.080;25.628;2023-07-30T04:19:08;5.83;;;4.80;;
7057;SDS011;3570;43.080;25.628;2023-07-30T04:21:52;5.60;;;4.40;;
7057;SDS011;3570;43.080;25.628;2023-07-30T04:24:36;7.67;;;5.03;;
7057;SDS011;3570;43.080;25.628;2023-07-30T04:27:20;7.07;;;4.60;;
7057;SDS011;3570;43.080;25.628;2023-07-30T04:30:04;5.73;;;4.70;;
7057;SDS011;3570;43.080;25.628;2023-07-30T04:32:49;6.67;;;4.73;;
7057;SDS011;3570;43.080;25.628;2023-07-30T04:35:33;5.97;;;4.87;;
7057;SDS011;3570;43.080;25.628;2023-07-30T04:38:17;6.17;;;4.20;;
7057;SDS011;3570;43.080;25.628;2023-07-30T04:41:01;5.20;;;4.30;;
7057;SDS011;3570;43.080;25.628;2023-07-30T04:43:45;6.00;;;5.27;;
7057;SDS011;3570;43.080;25.628;2023-07-30T04:46:29;5.60;;;4.53;;
7057;SDS011;3570;43.080;25.628;2023-07-30T04:49:14;5.27;;;3.63;;
7057;SDS011;3570;43.080;25.628;2023-07-30T04:51:59;4.50;;;3.70;;
7057;SDS011;3570;43.080;25.628;2023-07-30T04:54:43;4.17;;;3.73;;
7057;SDS011;3570;43.080;25.628;2023-07-30T04:57:27;3.93;;;3.50;;
7057;SDS011;3570;43.080;25.628;2023-07-30T05:00:11;4.63;;;3.47;;
7057;SDS011;3570;43.080;25.628;2023-07-30T05:02:55;5.67;;;4.10;;
7057;SDS011;3570;43.080;25.628;2023-07-30T05:05:40;5.17;;;3.83;;
7057;SDS011;3570;43.080;25.628;2023-07-30T05:08:24;4.67;;;3.87;;
7057;SDS011;3570;43.080;25.628;2023-07-30T05:11:08;4.93;;;3.97;;
7057;SDS011;3570;43.080;25.628;2023-07-30T05:13:52;7.00;;;4.27;;
7057;SDS011;3570;43.080;25.628;2023-07-30T05:16:37;5.33;;;4.07;;
7057;SDS011;3570;43.080;25.628;2023-07-30T05:19:21;4.80;;;3.93;;
7057;SDS011;3570;43.080;25.628;2023-07-30T05:22:05;7.37;;;4.20;;
7057;SDS011;3570;43.080;25.628;2023-07-30T05:24:51;4.77;;;3.77;;
7057;SDS011;3570;43.080;25.628;2023-07-30T05:27:35;4.30;;;3.90;;
7057;SDS011;3570;43.080;25.628;2023-07-30T05:30:20;4.53;;;3.90;;
7057;SDS011;3570;43.080;25.628;2023-07-30T05:33:03;4.77;;;3.63;;
7057;SDS011;3570;43.080;25.628;2023-07-30T05:35:48;6.90;;;3.77;;
7057;SDS011;3570;43.080;25.628;2023-07-30T05:38:32;4.33;;;3.40;;
7057;SDS011;3570;43.080;25.628;2023-07-30T05:41:16;4.07;;;3.50;;
7057;SDS011;3570;43.080;25.628;2023-07-30T05:44:00;4.97;;;3.63;;
7057;SDS011;3570;43.080;25.628;2023-07-30T05:46:44;3.90;;;3.50;;
7057;SDS011;3570;43.080;25.628;2023-07-30T05:49:28;5.47;;;3.63;;
7057;SDS011;3570;43.080;25.628;2023-07-30T05:52:11;5.50;;;4.17;;
7057;SDS011;3570;43.080;25.628;2023-07-30T05:54:56;4.20;;;3.80;;
7057;SDS011;3570;43.080;25.628;2023-07-30T05:57:39;4.20;;;3.80;;
7057;SDS011;3570;43.080;25.628;2023-07-30T06:00:24;6.73;;;4.37;;
7057;SDS011;3570;43.080;25.628;2023-07-30T06:03:08;4.93;;;3.70;;
7057;SDS011;3570;43.080;25.628;2023-07-30T06:05:53;4.67;;;3.63;;
7057;SDS011;3570;43.080;25.628;2023-07-30T06:08:37;4.57;;;4.00;;
7057;SDS011;3570;43.080;25.628;2023-07-30T06:11:21;4.93;;;4.43;;
7057;SDS011;3570;43.080;25.628;2023-07-30T06:14:05;5.80;;;4.03;;
7057;SDS011;3570;43.080;25.628;2023-07-30T06:16:49;5.33;;;4.20;;
7057;SDS011;3570;43.080;25.628;2023-07-30T06:19:34;7.07;;;6.33;;
7057;SDS011;3570;43.080;25.628;2023-07-30T06:22:18;6.70;;;6.00;;
7057;SDS011;3570;43.080;25.628;2023-07-30T06:25:02;6.17;;;5.57;;
7057;SDS011;3570;43.080;25.628;2023-07-30T06:27:47;7.70;;;5.90;;
7057;SDS011;3570;43.080;25.628;2023-07-30T06:30:34;8.30;;;7.23;;
7057;SDS011;3570;43.080;25.628;2023-07-30T06:33:20;7.73;;;6.93;;
7057;SDS011;3570;43.080;25.628;2023-07-30T06:36:04;10.70;;;6.17;;
7057;SDS011;3570;43.080;25.628;2023-07-30T06:38:48;7.27;;;6.47;;
7057;SDS011;3570;43.080;25.628;2023-07-30T06:41:32;6.83;;;5.80;;
7057;SDS011;3570;43.080;25.628;2023-07-30T06:44:16;9.37;;;7.20;;
7057;SDS011;3570;43.080;25.628;2023-07-30T06:47:00;5.03;;;4.57;;
7057;SDS011;3570;43.080;25.628;2023-07-30T06:49:44;7.37;;;6.40;;
7057;SDS011;3570;43.080;25.628;2023-07-30T06:52:28;9.57;;;7.43;;
7057;SDS011;3570;43.080;25.628;2023-07-30T06:55:12;8.47;;;5.63;;
7057;SDS011;3570;43.080;25.628;2023-07-30T06:57:56;9.77;;;5.20;;
7057;SDS011;3570;43.080;25.628;2023-07-30T07:00:40;8.97;;;5.10;;
7057;SDS011;3570;43.080;25.628;2023-07-30T07:03:24;6.27;;;5.27;;
7057;SDS011;3570;43.080;25.628;2023-07-30T07:06:08;6.07;;;5.43;;
7057;SDS011;3570;43.080;25.628;2023-07-30T07:08:52;6.50;;;5.83;;
7057;SDS011;3570;43.080;25.628;2023-07-30T07:11:36;6.73;;;4.53;;
7057;SDS011;3570;43.080;25.628;2023-07-30T07:14:21;5.33;;;4.10;;
7057;SDS011;3570;43.080;25.628;2023-07-30T07:17:05;5.37;;;3.83;;
7057;SDS011;3570;43.080;25.628;2023-07-30T07:19:49;4.57;;;3.77;;
7057;SDS011;3570;43.080;25.628;2023-07-30T07:22:34;3.83;;;3.43;;
7057;SDS011;3570;43.080;25.628;2023-07-30T07:25:18;6.10;;;4.90;;
7057;SDS011;3570;43.080;25.628;2023-07-30T07:28:03;4.07;;;3.50;;
7057;SDS011;3570;43.080;25.628;2023-07-30T07:30:47;3.70;;;3.40;;
7057;SDS011;3570;43.080;25.628;2023-07-30T07:33:31;4.13;;;3.13;;
7057;SDS011;3570;43.080;25.628;2023-07-30T07:36:15;4.47;;;3.80;;
7057;SDS011;3570;43.080;25.628;2023-07-30T07:38:59;4.80;;;3.80;;
7057;SDS011;3570;43.080;25.628;2023-07-30T07:41:43;3.83;;;3.42;;
7057;SDS011;3570;43.080;25.628;2023-07-30T07:44:27;5.20;;;3.78;;
7057;SDS011;3570;43.080;25.628;2023-07-30T07:47:11;3.65;;;3.10;;
7057;SDS011;3570;43.080;25.628;2023-07-30T07:49:55;3.45;;;3.15;;
7057;SDS011;3570;43.080;25.628;2023-07-30T07:52:39;3.30;;;3.00;;
7057;SDS011;3570;43.080;25.628;2023-07-30T07:55:24;4.25;;;3.35;;
7057;SDS011;3570;43.080;25.628;2023-07-30T07:58:08;4.10;;;2.95;;
7057;SDS011;3570;43.080;25.628;2023-07-30T08:00:54;4.50;;;3.20;;
7057;SDS011;3570;43.080;25.628;2023-07-30T08:03:39;3.83;;;3.03;;
7057;SDS011;3570;43.080;25.628;2023-07-30T08:06:23;3.20;;;2.90;;
7057;SDS011;3570;43.080;25.628;2023-07-30T08:09:07;3.83;;;3.30;;
7057;SDS011;3570;43.080;25.628;2023-07-30T08:11:51;3.28;;;2.92;;
7057;SDS011;3570;43.080;25.628;2023-07-30T08:14:35;3.80;;;3.08;;
7057;SDS011;3570;43.080;25.628;2023-07-30T08:17:19;3.67;;;3.15;;
7057;SDS011;3570;43.080;25.628;2023-07-30T08:20:04;4.00;;;3.60;;
7057;SDS011;3570;43.080;25.628;2023-07-30T08:22:48;3.70;;;2.90;;
7057;SDS011;3570;43.080;25.628;2023-07-30T08:25:32;4.97;;;3.20;;
7057;SDS011;3570;43.080;25.628;2023-07-30T08:28:16;4.72;;;2.80;;
7057;SDS011;3570;43.080;25.628;2023-07-30T08:31:01;3.20;;;2.58;;
7057;SDS011;3570;43.080;25.628;2023-07-30T08:33:48;4.85;;;2.70;;
7057;SDS011;3570;43.080;25.628;2023-07-30T08:36:32;4.53;;;2.50;;
7057;SDS011;3570;43.080;25.628;2023-07-30T08:39:17;2.40;;;2.13;;
7057;SDS011;3570;43.080;25.628;2023-07-30T08:42:02;2.40;;;2.20;;
7057;SDS011;3570;43.080;25.628;2023-07-30T08:44:46;2.47;;;2.28;;
7057;SDS011;3570;43.080;25.628;2023-07-30T08:47:30;2.72;;;1.90;;
7057;SDS011;3570;43.080;25.628;2023-07-30T08:50:14;2.45;;;2.22;;
7057;SDS011;3570;43.080;25.628;2023-07-30T08:52:59;1.88;;;1.77;;
7057;SDS011;3570;43.080;25.628;2023-07-30T08:55:46;2.20;;;2.00;;
7057;SDS011;3570;43.080;25.628;2023-07-30T08:58:31;2.67;;;2.20;;
7057;SDS011;3570;43.080;25.628;2023-07-30T09:01:16;2.40;;;2.20;;
7057;SDS011;3570;43.080;25.628;2023-07-30T09:04:03;3.25;;;2.30;;
7057;SDS011;3570;43.080;25.628;2023-07-30T09:06:48;3.50;;;2.30;;
7057;SDS011;3570;43.080;25.628;2023-07-30T09:09:33;2.72;;;2.25;;
7057;SDS011;3570;43.080;25.628;2023-07-30T09:12:17;2.55;;;2.20;;
7057;SDS011;3570;43.080;25.628;2023-07-30T09:15:02;2.63;;;2.00;;
7057;SDS011;3570;43.080;25.628;2023-07-30T09:17:48;2.58;;;2.13;;
7057;SDS011;3570;43.080;25.628;2023-07-30T09:20:39;2.65;;;2.03;;
7057;SDS011;3570;43.080;25.628;2023-07-30T09:23:25;2.20;;;2.00;;
7057;SDS011;3570;43.080;25.628;2023-07-30T09:26:09;3.63;;;2.70;;
7057;SDS011;3570;43.080;25.628;2023-07-30T09:28:55;2.20;;;2.00;;
7057;SDS011;3570;43.080;25.628;2023-07-30T09:31:43;2.55;;;2.22;;
7057;SDS011;3570;43.080;25.628;2023-07-30T09:34:31;2.75;;;2.17;;
7057;SDS011;3570;43.080;25.628;2023-07-30T09:37:16;2.85;;;2.40;;
7057;SDS011;3570;43.080;25.628;2023-07-30T09:40:00;2.28;;;2.08;;
7057;SDS011;3570;43.080;25.628;2023-07-30T09:42:45;2.88;;;2.40;;
7057;SDS011;3570;43.080;25.628;2023-07-30T09:45:35;2.38;;;2.17;;
7057;SDS011;3570;43.080;25.628;2023-07-30T09:48:20;2.45;;;2.25;;
7057;SDS011;3570;43.080;25.628;2023-07-30T09:51:04;2.30;;;2.10;;
7057;SDS011;3570;43.080;25.628;2023-07-30T09:53:49;2.95;;;2.13;;
7057;SDS011;3570;43.080;25.628;2023-07-30T09:56:38;2.97;;;2.42;;
7057;SDS011;3570;43.080;25.628;2023-07-30T09:59:23;2.65;;;2.42;;
7057;SDS011;3570;43.080;25.628;2023-07-30T10:02:08;3.90;;;2.20;;
7057;SDS011;3570;43.080;25.628;2023-07-30T10:04:55;2.22;;;1.98;;
7057;SDS011;3570;43.080;25.628;2023-07-30T10:07:44;3.63;;;2.70;;
7057;SDS011;3570;43.080;25.628;2023-07-30T10:10:38;2.38;;;2.00;;
7057;SDS011;3570;43.080;25.628;2023-07-30T10:13:22;3.67;;;2.03;;
7057;SDS011;3570;43.080;25.628;2023-07-30T10:16:10;2.55;;;2.35;;
7057;SDS011;3570;43.080;25.628;2023-07-30T10:18:58;2.53;;;2.20;;
7057;SDS011;3570;43.080;25.628;2023-07-30T10:21:42;2.13;;;1.92;;
7057;SDS011;3570;43.080;25.628;2023-07-30T10:24:26;2.03;;;1.92;;
7057;SDS011;3570;43.080;25.628;2023-07-30T10:27:11;2.20;;;1.98;;
7057;SDS011;3570;43.080;25.628;2023-07-30T10:30:10;1.70;;;1.60;;
7057;SDS011;3570;43.080;25.628;2023-07-30T10:32:59;2.20;;;2.00;;
7057;SDS011;3570;43.080;25.628;2023-07-30T10:35:45;2.15;;;1.95;;
7057;SDS011;3570;43.080;25.628;2023-07-30T10:38:30;3.20;;;2.17;;
7057;SDS011;3570;43.080;25.628;2023-07-30T10:41:15;1.70;;;1.60;;
7057;SDS011;3570;43.080;25.628;2023-07-30T10:44:01;1.73;;;1.60;;
7057;SDS011;3570;43.080;25.628;2023-07-30T10:46:45;1.80;;;1.70;;
7057;SDS011;3570;43.080;25.628;2023-07-30T10:49:30;2.83;;;2.15;;
7057;SDS011;3570;43.080;25.628;2023-07-30T10:52:23;2.28;;;1.65;;
7057;SDS011;3570;43.080;25.628;2023-07-30T10:55:08;1.95;;;1.75;;
7057;SDS011;3570;43.080;25.628;2023-07-30T10:57:52;2.33;;;2.10;;
7057;SDS011;3570;43.080;25.628;2023-07-30T11:00:36;1.70;;;1.60;;
7057;SDS011;3570;43.080;25.628;2023-07-30T11:03:23;1.88;;;1.70;;
7057;SDS011;3570;43.080;25.628;2023-07-30T11:06:09;1.92;;;1.83;;
7057;SDS011;3570;43.080;25.628;2023-07-30T11:08:53;2.53;;;1.83;;
7057;SDS011;3570;43.080;25.628;2023-07-30T11:11:37;1.80;;;1.70;;
7057;SDS011;3570;43.080;25.628;2023-07-30T11:14:26;1.63;;;1.52;;
7057;SDS011;3570;43.080;25.628;2023-07-30T11:17:11;1.42;;;1.33;;
7057;SDS011;3570;43.080;25.628;2023-07-30T11:19:55;2.78;;;2.20;;
7057;SDS011;3570;43.080;25.628;2023-07-30T11:22:38;2.30;;;1.80;;
7057;SDS011;3570;43.080;25.628;2023-07-30T11:25:22;1.83;;;1.65;;
7057;SDS011;3570;43.080;25.628;2023-07-30T11:28:06;2.10;;;1.60;;
7057;SDS011;3570;43.080;25.628;2023-07-30T11:30:50;1.95;;;1.75;;
7057;SDS011;3570;43.080;25.628;2023-07-30T11:33:35;1.85;;;1.50;;
7057;SDS011;3570;43.080;25.628;2023-07-30T11:36:21;2.03;;;1.65;;
7057;SDS011;3570;43.080;25.628;2023-07-30T11:39:07;2.33;;;1.88;;
7057;SDS011;3570;43.080;25.628;2023-07-30T11:41:52;2.22;;;1.63;;
7057;SDS011;3570;43.080;25.628;2023-07-30T11:44:37;2.00;;;1.80;;
7057;SDS011;3570;43.080;25.628;2023-07-30T11:47:23;2.00;;;1.80;;
7057;SDS011;3570;43.080;25.628;2023-07-30T11:50:07;2.53;;;2.08;;
7057;SDS011;3570;43.080;25.628;2023-07-30T11:52:55;2.95;;;1.90;;
7057;SDS011;3570;43.080;25.628;2023-07-30T11:55:40;2.28;;;2.08;;
7057;SDS011;3570;43.080;25.628;2023-07-30T11:58:28;1.85;;;1.75;;
7057;SDS011;3570;43.080;25.628;2023-07-30T12:01:12;2.08;;;1.77;;
7057;SDS011;3570;43.080;25.628;2023-07-30T12:03:57;2.15;;;1.95;;
7057;SDS011;3570;43.080;25.628;2023-07-30T12:06:43;2.20;;;2.00;;
7057;SDS011;3570;43.080;25.628;2023-07-30T12:09:29;2.08;;;1.85;;
7057;SDS011;3570;43.080;25.628;2023-07-30T12:12:19;2.10;;;2.00;;
7057;SDS011;3570;43.080;25.628;2023-07-30T12:15:12;1.90;;;1.80;;
7057;SDS011;3570;43.080;25.628;2023-07-30T12:17:56;2.45;;;1.95;;
7057;SDS011;3570;43.080;25.628;2023-07-30T12:20:41;2.10;;;1.90;;
7057;SDS011;3570;43.080;25.628;2023-07-30T12:23:26;1.95;;;1.85;;
7057;SDS011;3570;43.080;25.628;2023-07-30T12:26:10;1.98;;;1.75;;
7057;SDS011;3570;43.080;25.628;2023-07-30T12:28:54;2.28;;;1.83;;
7057;SDS011;3570;43.080;25.628;2023-07-30T12:31:38;2.40;;;2.20;;
7057;SDS011;3570;43.080;25.628;2023-07-30T12:34:23;2.20;;;1.90;;
7057;SDS011;3570;43.080;25.628;2023-07-30T12:37:08;2.10;;;1.92;;
7057;SDS011;3570;43.080;25.628;2023-07-30T12:39:53;2.33;;;2.13;;
7057;SDS011;3570;43.080;25.628;2023-07-30T12:42:37;2.22;;;1.85;;
7057;SDS011;3570;43.080;25.628;2023-07-30T12:45:21;2.10;;;1.90;;
7057;SDS011;3570;43.080;25.628;2023-07-30T12:48:05;2.33;;;2.03;;
7057;SDS011;3570;43.080;25.628;2023-07-30T12:50:51;2.47;;;2.28;;
7057;SDS011;3570;43.080;25.628;2023-07-30T12:53:35;2.30;;;2.10;;
7057;SDS011;3570;43.080;25.628;2023-07-30T12:56:19;2.33;;;2.10;;
7057;SDS011;3570;43.080;25.628;2023-07-30T12:59:03;2.05;;;1.90;;
7057;SDS011;3570;43.080;25.628;2023-07-30T13:01:47;1.85;;;1.75;;
7057;SDS011;3570;43.080;25.628;2023-07-30T13:04:31;2.22;;;2.03;;
7057;SDS011;3570;43.080;25.628;2023-07-30T13:07:15;2.30;;;1.80;;
7057;SDS011;3570;43.080;25.628;2023-07-30T13:10:06;1.90;;;1.80;;
7057;SDS011;3570;43.080;25.628;2023-07-30T13:12:52;1.90;;;1.80;;
7057;SDS011;3570;43.080;25.628;2023-07-30T13:15:36;2.83;;;2.38;;
7057;SDS011;3570;43.080;25.628;2023-07-30T13:18:20;2.25;;;2.05;;
7057;SDS011;3570;43.080;25.628;2023-07-30T13:21:04;1.92;;;1.83;;
7057;SDS011;3570;43.080;25.628;2023-07-30T13:23:48;2.15;;;1.85;;
7057;SDS011;3570;43.080;25.628;2023-07-30T13:26:32;2.17;;;2.08;;
7057;SDS011;3570;43.080;25.628;2023-07-30T13:29:16;2.05;;;1.85;;
7057;SDS011;3570;43.080;25.628;2023-07-30T13:32:00;2.25;;;2.05;;
7057;SDS011;3570;43.080;25.628;2023-07-30T13:34:44;2.10;;;1.77;;
7057;SDS011;3570;43.080;25.628;2023-07-30T13:37:28;1.92;;;1.83;;
7057;SDS011;3570;43.080;25.628;2023-07-30T13:40:12;1.92;;;1.83;;
7057;SDS011;3570;43.080;25.628;2023-07-30T13:42:56;2.50;;;2.30;;
7057;SDS011;3570;43.080;25.628;2023-07-30T13:45:40;1.98;;;1.88;;
7057;SDS011;3570;43.080;25.628;2023-07-30T13:48:25;2.30;;;2.10;;
7057;SDS011;3570;43.080;25.628;2023-07-30T13:51:09;2.65;;;2.00;;
7057;SDS011;3570;43.080;25.628;2023-07-30T13:53:53;2.10;;;1.90;;
7057;SDS011;3570;43.080;25.628;2023-07-30T13:56:37;3.95;;;2.20;;
7057;SDS011;3570;43.080;25.628;2023-07-30T13:59:22;1.80;;;1.70;;
7057;SDS011;3570;43.080;25.628;2023-07-30T14:02:06;2.00;;;1.90;;
7057;SDS011;3570;43.080;25.628;2023-07-30T14:04:50;2.40;;;2.20;;
7057;SDS011;3570;43.080;25.628;2023-07-30T14:07:34;4.45;;;2.78;;
7057;SDS011;3570;43.080;25.628;2023-07-30T14:10:19;2.78;;;2.50;;
7057;SDS011;3570;43.080;25.628;2023-07-30T14:13:03;2.80;;;2.30;;
7057;SDS011;3570;43.080;25.628;2023-07-30T14:15:47;2.30;;;2.10;;
7057;SDS011;3570;43.080;25.628;2023-07-30T14:18:32;2.15;;;1.95;;
7057;SDS011;3570;43.080;25.628;2023-07-30T14:21:17;2.47;;;2.22;;
7057;SDS011;3570;43.080;25.628;2023-07-30T14:24:01;1.98;;;1.77;;
7057;SDS011;3570;43.080;25.628;2023-07-30T14:26:44;3.90;;;2.22;;
7057;SDS011;3570;43.080;25.628;2023-07-30T14:29:28;2.67;;;2.47;;
7057;SDS011;3570;43.080;25.628;2023-07-30T14:32:12;3.75;;;2.40;;
7057;SDS011;3570;43.080;25.628;2023-07-30T14:34:56;3.33;;;1.92;;
7057;SDS011;3570;43.080;25.628;2023-07-30T14:37:40;2.47;;;2.00;;
7057;SDS011;3570;43.080;25.628;2023-07-30T14:40:24;2.22;;;1.92;;
7057;SDS011;3570;43.080;25.628;2023-07-30T14:43:08;3.40;;;2.08;;
7057;SDS011;3570;43.080;25.628;2023-07-30T14:45:53;2.40;;;2.20;;
7057;SDS011;3570;43.080;25.628;2023-07-30T14:48:37;2.20;;;2.00;;
7057;SDS011;3570;43.080;25.628;2023-07-30T14:51:21;2.33;;;2.13;;
7057;SDS011;3570;43.080;25.628;2023-07-30T14:54:05;2.28;;;2.08;;
7057;SDS011;3570;43.080;25.628;2023-07-30T14:56:49;2.40;;;2.20;;
7057;SDS011;3570;43.080;25.628;2023-07-30T14:59:33;2.88;;;2.22;;
7057;SDS011;3570;43.080;25.628;2023-07-30T15:02:18;2.45;;;1.98;;
7057;SDS011;3570;43.080;25.628;2023-07-30T15:05:02;2.30;;;1.90;;
7057;SDS011;3570;43.080;25.628;2023-07-30T15:07:46;2.78;;;1.85;;
7057;SDS011;3570;43.080;25.628;2023-07-30T15:10:31;2.17;;;1.98;;
7057;SDS011;3570;43.080;25.628;2023-07-30T15:13:15;2.10;;;1.90;;
7057;SDS011;3570;43.080;25.628;2023-07-30T15:15:59;1.77;;;1.67;;
7057;SDS011;3570;43.080;25.628;2023-07-30T15:18:43;2.47;;;2.00;;
7057;SDS011;3570;43.080;25.628;2023-07-30T15:21:29;1.85;;;1.70;;
7057;SDS011;3570;43.080;25.628;2023-07-30T15:24:14;2.15;;;1.95;;
7057;SDS011;3570;43.080;25.628;2023-07-30T15:26:58;2.33;;;2.13;;
7057;SDS011;3570;43.080;25.628;2023-07-30T15:29:43;4.18;;;2.35;;
7057;SDS011;3570;43.080;25.628;2023-07-30T15:32:28;3.08;;;2.42;;
7057;SDS011;3570;43.080;25.628;2023-07-30T15:35:14;2.33;;;2.00;;
7057;SDS011;3570;43.080;25.628;2023-07-30T15:37:59;2.55;;;2.15;;
7057;SDS011;3570;43.080;25.628;2023-07-30T15:40:43;2.40;;;2.20;;
7057;SDS011;3570;43.080;25.628;2023-07-30T15:43:27;2.92;;;1.80;;
7057;SDS011;3570;43.080;25.628;2023-07-30T15:46:11;2.22;;;2.03;;
7057;SDS011;3570;43.080;25.628;2023-07-30T15:48:55;2.10;;;1.90;;
7057;SDS011;3570;43.080;25.628;2023-07-30T15:51:39;2.85;;;2.00;;
7057;SDS011;3570;43.080;25.628;2023-07-30T15:54:32;3.33;;;2.38;;
7057;SDS011;3570;43.080;25.628;2023-07-30T15:57:17;2.10;;;1.92;;
7057;SDS011;3570;43.080;25.628;2023-07-30T16:00:01;2.20;;;2.00;;
7057;SDS011;3570;43.080;25.628;2023-07-30T16:02:46;2.50;;;2.30;;
7057;SDS011;3570;43.080;25.628;2023-07-30T16:05:31;2.58;;;2.00;;
7057;SDS011;3570;43.080;25.628;2023-07-30T16:08:16;2.28;;;2.08;;
7057;SDS011;3570;43.080;25.628;2023-07-30T16:11:01;2.40;;;2.20;;
7057;SDS011;3570;43.080;25.628;2023-07-30T16:13:46;1.67;;;1.58;;
7057;SDS011;3570;43.080;25.628;2023-07-30T16:16:31;2.50;;;2.28;;
7057;SDS011;3570;43.080;25.628;2023-07-30T16:19:16;2.47;;;2.28;;
7057;SDS011;3570;43.080;25.628;2023-07-30T16:22:01;2.40;;;2.20;;
7057;SDS011;3570;43.080;25.628;2023-07-30T16:24:45;2.40;;;2.10;;
7057;SDS011;3570;43.080;25.628;2023-07-30T16:27:32;2.30;;;2.10;;
7057;SDS011;3570;43.080;25.628;2023-07-30T16:30:16;2.67;;;2.30;;
7057;SDS011;3570;43.080;25.628;2023-07-30T16:33:00;2.72;;;2.20;;
7057;SDS011;3570;43.080;25.628;2023-07-30T16:35:44;2.35;;;2.15;;
7057;SDS011;3570;43.080;25.628;2023-07-30T16:38:30;2.58;;;2.38;;
7057;SDS011;3570;43.080;25.628;2023-07-30T16:41:14;2.40;;;2.20;;
7057;SDS011;3570;43.080;25.628;2023-07-30T16:43:58;2.45;;;2.25;;
7057;SDS011;3570;43.080;25.628;2023-07-30T16:46:42;4.47;;;2.50;;